sensor_id;sensor_type;location;lat;lon;timestamp;P1;durP1;ratioP1;P2;durP2;ratioP2
65202;SDS011;51788;45.124;38.966;2022-08-01T00:01:08;11.57;;;7.13;;
65202;SDS011;51788;45.124;38.966;2022-08-01T00:03:34;12.38;;;7.57;;
65202;SDS011;51788;45.124;38.966;2022-08-01T00:06:00;9.77;;;6.75;;
65202;SDS011;51788;45.124;38.966;2022-08-01T00:08:26;23.50;;;7.18;;
65202;SDS011;51788;45.124;38.966;2022-08-01T00:10:52;10.48;;;7.45;;
65202;SDS011;51788;45.124;38.966;2022-08-01T00:13:18;16.65;;;7.68;;
65202;SDS011;51788;45.124;38.966;2022-08-01T00:15:44;15.25;;;8.00;;
65202;SDS011;51788;45.124;38.966;2022-08-01T00:18:10;8.05;;;7.03;;
65202;SDS011;51788;45.124;38.966;2022-08-01T00:20:36;15.98;;;8.15;;
65202;SDS011;51788;45.124;38.966;2022-08-01T00:23:02;12.90;;;7.13;;
65202;SDS011;51788;45.124;38.966;2022-08-01T00:25:28;14.27;;;6.90;;
65202;SDS011;51788;45.124;38.966;2022-08-01T00:27:55;19.25;;;7.70;;
65202;SDS011;51788;45.124;38.966;2022-08-01T00:30:20;23.88;;;8.18;;
65202;SDS011;51788;45.124;38.966;2022-08-01T00:32:46;17.77;;;7.72;;
65202;SDS011;51788;45.124;38.966;2022-08-01T00:35:12;14.20;;;7.25;;
65202;SDS011;51788;45.124;38.966;2022-08-01T00:37:38;12.30;;;7.45;;
65202;SDS011;51788;45.124;38.966;2022-08-01T00:40:05;18.30;;;7.68;;
65202;SDS011;51788;45.124;38.966;2022-08-01T00:42:32;10.00;;;7.13;;
65202;SDS011;51788;45.124;38.966;2022-08-01T00:44:58;18.33;;;7.80;;
65202;SDS011;51788;45.124;38.966;2022-08-01T00:47:24;9.93;;;6.93;;
65202;SDS011;51788;45.124;38.966;2022-08-01T00:49:50;13.80;;;8.00;;
65202;SDS011;51788;45.124;38.966;2022-08-01T00:52:17;11.63;;;7.30;;
65202;SDS011;51788;45.124;38.966;2022-08-01T00:54:43;11.57;;;7.53;;
65202;SDS011;51788;45.124;38.966;2022-08-01T00:57:09;13.23;;;7.72;;
65202;SDS011;51788;45.124;38.966;2022-08-01T00:59:35;8.02;;;7.05;;
65202;SDS011;51788;45.124;38.966;2022-08-01T01:02:02;15.43;;;8.18;;
65202;SDS011;51788;45.124;38.966;2022-08-01T01:04:28;11.90;;;7.85;;
65202;SDS011;51788;45.124;38.966;2022-08-01T01:17:23;13.05;;;7.93;;
65202;SDS011;51788;45.124;38.966;2022-08-01T01:19:54;22.73;;;7.90;;
65202;SDS011;51788;45.124;38.966;2022-08-01T01:30:51;16.92;;;9.65;;
65202;SDS011;51788;45.124;38.966;2022-08-01T01:33:19;25.65;;;10.13;;
65202;SDS011;51788;45.124;38.966;2022-08-01T01:35:49;17.02;;;9.48;;
65202;SDS011;51788;45.124;38.966;2022-08-01T01:38:22;10.82;;;8.55;;
65202;SDS011;51788;45.124;38.966;2022-08-01T01:40:51;22.80;;;8.50;;
65202;SDS011;51788;45.124;38.966;2022-08-01T01:43:18;20.23;;;8.63;;
65202;SDS011;51788;45.124;38.966;2022-08-01T01:45:45;21.55;;;8.85;;
65202;SDS011;51788;45.124;38.966;2022-08-01T01:48:13;17.13;;;9.93;;
65202;SDS011;51788;45.124;38.966;2022-08-01T01:50:42;18.60;;;9.68;;
65202;SDS011;51788;45.124;38.966;2022-08-01T01:53:10;15.18;;;9.80;;
65202;SDS011;51788;45.124;38.966;2022-08-01T01:55:39;13.13;;;9.07;;
65202;SDS011;51788;45.124;38.966;2022-08-01T01:58:07;23.52;;;10.40;;
65202;SDS011;51788;45.124;38.966;2022-08-01T02:00:35;32.92;;;12.07;;
65202;SDS011;51788;45.124;38.966;2022-08-01T02:03:03;22.95;;;12.68;;
65202;SDS011;51788;45.124;38.966;2022-08-01T02:05:32;35.83;;;12.70;;
65202;SDS011;51788;45.124;38.966;2022-08-01T02:08:01;44.13;;;12.98;;
65202;SDS011;51788;45.124;38.966;2022-08-01T02:10:29;31.05;;;11.65;;
65202;SDS011;51788;45.124;38.966;2022-08-01T02:12:57;19.70;;;11.00;;
65202;SDS011;51788;45.124;38.966;2022-08-01T02:15:25;17.75;;;10.43;;
65202;SDS011;51788;45.124;38.966;2022-08-01T02:17:53;16.65;;;10.18;;
65202;SDS011;51788;45.124;38.966;2022-08-01T02:20:22;15.52;;;9.98;;
65202;SDS011;51788;45.124;38.966;2022-08-01T02:22:50;16.10;;;10.13;;
65202;SDS011;51788;45.124;38.966;2022-08-01T02:25:36;16.35;;;10.43;;
65202;SDS011;51788;45.124;38.966;2022-08-01T02:28:25;14.32;;;10.13;;
65202;SDS011;51788;45.124;38.966;2022-08-01T02:31:00;27.52;;;11.30;;
65202;SDS011;51788;45.124;38.966;2022-08-01T02:33:37;20.00;;;10.57;;
65202;SDS011;51788;45.124;38.966;2022-08-01T02:36:06;25.90;;;10.15;;
65202;SDS011;51788;45.124;38.966;2022-08-01T02:38:38;20.27;;;10.70;;
65202;SDS011;51788;45.124;38.966;2022-08-01T02:41:09;27.45;;;12.77;;
65202;SDS011;51788;45.124;38.966;2022-08-01T02:43:38;20.40;;;12.20;;
65202;SDS011;51788;45.124;38.966;2022-08-01T02:46:10;19.65;;;12.25;;
65202;SDS011;51788;45.124;38.966;2022-08-01T02:48:41;29.02;;;13.88;;
65202;SDS011;51788;45.124;38.966;2022-08-01T02:51:08;24.77;;;13.70;;
65202;SDS011;51788;45.124;38.966;2022-08-01T02:53:37;19.63;;;11.98;;
65202;SDS011;51788;45.124;38.966;2022-08-01T02:56:06;22.10;;;14.55;;
65202;SDS011;51788;45.124;38.966;2022-08-01T02:58:35;32.15;;;12.82;;
65202;SDS011;51788;45.124;38.966;2022-08-01T03:01:04;18.15;;;10.27;;
65202;SDS011;51788;45.124;38.966;2022-08-01T03:03:31;39.00;;;10.52;;
65202;SDS011;51788;45.124;38.966;2022-08-01T03:05:58;16.40;;;9.85;;
65202;SDS011;51788;45.124;38.966;2022-08-01T03:08:26;18.70;;;9.00;;
65202;SDS011;51788;45.124;38.966;2022-08-01T03:10:54;15.35;;;10.10;;
65202;SDS011;51788;45.124;38.966;2022-08-01T03:13:22;20.08;;;9.77;;
65202;SDS011;51788;45.124;38.966;2022-08-01T03:15:50;15.90;;;10.20;;
65202;SDS011;51788;45.124;38.966;2022-08-01T03:18:18;14.05;;;9.43;;
65202;SDS011;51788;45.124;38.966;2022-08-01T03:20:47;32.85;;;10.18;;
65202;SDS011;51788;45.124;38.966;2022-08-01T03:23:15;17.92;;;9.93;;
65202;SDS011;51788;45.124;38.966;2022-08-01T03:25:43;24.45;;;9.60;;
65202;SDS011;51788;45.124;38.966;2022-08-01T03:28:12;13.82;;;10.15;;
65202;SDS011;51788;45.124;38.966;2022-08-01T03:30:39;18.27;;;10.80;;
65202;SDS011;51788;45.124;38.966;2022-08-01T03:33:06;25.13;;;9.98;;
65202;SDS011;51788;45.124;38.966;2022-08-01T03:35:46;15.73;;;9.63;;
65202;SDS011;51788;45.124;38.966;2022-08-01T03:38:17;27.05;;;10.10;;
65202;SDS011;51788;45.124;38.966;2022-08-01T03:40:52;16.20;;;9.45;;
65202;SDS011;51788;45.124;38.966;2022-08-01T03:45:55;15.93;;;10.10;;
65202;SDS011;51788;45.124;38.966;2022-08-01T03:48:30;13.00;;;8.85;;
65202;SDS011;51788;45.124;38.966;2022-08-01T03:51:01;20.27;;;9.65;;
65202;SDS011;51788;45.124;38.966;2022-08-01T03:53:30;25.50;;;9.88;;
65202;SDS011;51788;45.124;38.966;2022-08-01T03:55:58;28.50;;;9.80;;
65202;SDS011;51788;45.124;38.966;2022-08-01T03:58:27;21.27;;;9.57;;
65202;SDS011;51788;45.124;38.966;2022-08-01T04:00:55;34.83;;;10.05;;
65202;SDS011;51788;45.124;38.966;2022-08-01T04:03:22;19.52;;;10.05;;
65202;SDS011;51788;45.124;38.966;2022-08-01T04:05:49;27.13;;;10.02;;
65202;SDS011;51788;45.124;38.966;2022-08-01T04:08:15;28.35;;;9.55;;
65202;SDS011;51788;45.124;38.966;2022-08-01T04:10:41;18.27;;;9.80;;
65202;SDS011;51788;45.124;38.966;2022-08-01T04:13:07;20.73;;;9.88;;
65202;SDS011;51788;45.124;38.966;2022-08-01T04:15:33;21.38;;;10.10;;
65202;SDS011;51788;45.124;38.966;2022-08-01T04:18:00;26.33;;;9.93;;
65202;SDS011;51788;45.124;38.966;2022-08-01T04:20:26;20.27;;;9.85;;
65202;SDS011;51788;45.124;38.966;2022-08-01T04:22:52;33.15;;;10.30;;
65202;SDS011;51788;45.124;38.966;2022-08-01T04:25:29;21.90;;;10.27;;
65202;SDS011;51788;45.124;38.966;2022-08-01T04:28:02;22.75;;;10.23;;
65202;SDS011;51788;45.124;38.966;2022-08-01T04:30:33;23.55;;;10.13;;
65202;SDS011;51788;45.124;38.966;2022-08-01T04:33:01;22.48;;;10.57;;
65202;SDS011;51788;45.124;38.966;2022-08-01T04:35:31;32.38;;;10.52;;
65202;SDS011;51788;45.124;38.966;2022-08-01T04:37:59;21.95;;;9.88;;
65202;SDS011;51788;45.124;38.966;2022-08-01T04:40:28;24.80;;;10.40;;
65202;SDS011;51788;45.124;38.966;2022-08-01T04:42:55;19.98;;;10.32;;
65202;SDS011;51788;45.124;38.966;2022-08-01T04:45:21;31.30;;;10.75;;
65202;SDS011;51788;45.124;38.966;2022-08-01T04:47:48;34.20;;;11.10;;
65202;SDS011;51788;45.124;38.966;2022-08-01T04:50:15;19.63;;;9.98;;
65202;SDS011;51788;45.124;38.966;2022-08-01T04:52:41;18.52;;;11.48;;
65202;SDS011;51788;45.124;38.966;2022-08-01T04:55:07;14.20;;;9.27;;
65202;SDS011;51788;45.124;38.966;2022-08-01T04:57:36;24.25;;;10.32;;
65202;SDS011;51788;45.124;38.966;2022-08-01T05:00:05;25.88;;;9.88;;
65202;SDS011;51788;45.124;38.966;2022-08-01T05:02:32;22.83;;;9.48;;
65202;SDS011;51788;45.124;38.966;2022-08-01T05:04:58;15.93;;;8.90;;
65202;SDS011;51788;45.124;38.966;2022-08-01T05:07:24;29.13;;;10.55;;
65202;SDS011;51788;45.124;38.966;2022-08-01T05:09:50;22.00;;;9.20;;
65202;SDS011;51788;45.124;38.966;2022-08-01T05:12:16;12.57;;;9.20;;
65202;SDS011;51788;45.124;38.966;2022-08-01T05:14:42;19.05;;;8.80;;
65202;SDS011;51788;45.124;38.966;2022-08-01T05:17:09;13.95;;;9.23;;
65202;SDS011;51788;45.124;38.966;2022-08-01T05:19:36;14.77;;;10.18;;
65202;SDS011;51788;45.124;38.966;2022-08-01T05:22:04;17.75;;;10.90;;
65202;SDS011;51788;45.124;38.966;2022-08-01T05:24:31;17.33;;;9.70;;
65202;SDS011;51788;45.124;38.966;2022-08-01T05:27:02;21.00;;;9.38;;
65202;SDS011;51788;45.124;38.966;2022-08-01T05:29:28;21.25;;;9.13;;
65202;SDS011;51788;45.124;38.966;2022-08-01T05:31:55;12.15;;;9.45;;
65202;SDS011;51788;45.124;38.966;2022-08-01T05:34:21;15.77;;;9.80;;
65202;SDS011;51788;45.124;38.966;2022-08-01T05:36:47;20.88;;;9.23;;
65202;SDS011;51788;45.124;38.966;2022-08-01T05:39:14;22.88;;;9.75;;
65202;SDS011;51788;45.124;38.966;2022-08-01T05:41:40;18.90;;;8.85;;
65202;SDS011;51788;45.124;38.966;2022-08-01T05:44:07;18.13;;;9.07;;
65202;SDS011;51788;45.124;38.966;2022-08-01T05:46:34;21.63;;;8.30;;
65202;SDS011;51788;45.124;38.966;2022-08-01T05:49:01;25.25;;;10.10;;
65202;SDS011;51788;45.124;38.966;2022-08-01T05:51:28;14.50;;;10.55;;
65202;SDS011;51788;45.124;38.966;2022-08-01T05:53:54;19.08;;;9.02;;
65202;SDS011;51788;45.124;38.966;2022-08-01T05:56:21;15.38;;;8.93;;
65202;SDS011;51788;45.124;38.966;2022-08-01T05:58:48;17.52;;;8.98;;
65202;SDS011;51788;45.124;38.966;2022-08-01T06:01:14;17.90;;;8.88;;
65202;SDS011;51788;45.124;38.966;2022-08-01T06:03:41;18.23;;;8.45;;
65202;SDS011;51788;45.124;38.966;2022-08-01T06:06:07;18.48;;;8.43;;
65202;SDS011;51788;45.124;38.966;2022-08-01T06:08:33;18.88;;;9.20;;
65202;SDS011;51788;45.124;38.966;2022-08-01T06:10:59;30.10;;;10.00;;
65202;SDS011;51788;45.124;38.966;2022-08-01T06:13:25;17.58;;;9.05;;
65202;SDS011;51788;45.124;38.966;2022-08-01T06:15:51;17.10;;;8.73;;
65202;SDS011;51788;45.124;38.966;2022-08-01T06:18:17;23.65;;;9.82;;
65202;SDS011;51788;45.124;38.966;2022-08-01T06:20:43;16.60;;;9.05;;
65202;SDS011;51788;45.124;38.966;2022-08-01T06:23:10;8.82;;;8.02;;
65202;SDS011;51788;45.124;38.966;2022-08-01T06:25:36;24.55;;;9.82;;
65202;SDS011;51788;45.124;38.966;2022-08-01T06:28:02;17.23;;;9.10;;
65202;SDS011;51788;45.124;38.966;2022-08-01T06:30:29;16.25;;;8.55;;
65202;SDS011;51788;45.124;38.966;2022-08-01T06:32:55;22.38;;;8.13;;
65202;SDS011;51788;45.124;38.966;2022-08-01T06:35:23;26.30;;;9.52;;
65202;SDS011;51788;45.124;38.966;2022-08-01T06:37:50;21.02;;;8.57;;
65202;SDS011;51788;45.124;38.966;2022-08-01T06:40:16;28.10;;;9.00;;
65202;SDS011;51788;45.124;38.966;2022-08-01T06:42:43;10.35;;;8.00;;
65202;SDS011;51788;45.124;38.966;2022-08-01T06:45:11;15.45;;;8.05;;
65202;SDS011;51788;45.124;38.966;2022-08-01T06:47:39;15.85;;;8.45;;
65202;SDS011;51788;45.124;38.966;2022-08-01T06:50:06;9.40;;;7.85;;
65202;SDS011;51788;45.124;38.966;2022-08-01T06:52:33;19.23;;;8.35;;
65202;SDS011;51788;45.124;38.966;2022-08-01T06:55:00;15.77;;;8.27;;
65202;SDS011;51788;45.124;38.966;2022-08-01T06:57:27;8.98;;;8.07;;
65202;SDS011;51788;45.124;38.966;2022-08-01T06:59:53;15.77;;;9.02;;
65202;SDS011;51788;45.124;38.966;2022-08-01T07:02:21;18.90;;;9.68;;
65202;SDS011;51788;45.124;38.966;2022-08-01T07:04:48;14.10;;;9.05;;
65202;SDS011;51788;45.124;38.966;2022-08-01T07:07:17;12.85;;;8.40;;
65202;SDS011;51788;45.124;38.966;2022-08-01T07:09:43;18.63;;;9.35;;
65202;SDS011;51788;45.124;38.966;2022-08-01T07:12:09;17.35;;;8.82;;
65202;SDS011;51788;45.124;38.966;2022-08-01T07:14:35;15.30;;;8.02;;
65202;SDS011;51788;45.124;38.966;2022-08-01T07:17:01;27.70;;;8.25;;
65202;SDS011;51788;45.124;38.966;2022-08-01T07:19:27;11.93;;;8.20;;
65202;SDS011;51788;45.124;38.966;2022-08-01T07:21:53;22.33;;;8.13;;
65202;SDS011;51788;45.124;38.966;2022-08-01T07:24:19;15.27;;;8.02;;
65202;SDS011;51788;45.124;38.966;2022-08-01T07:26:46;15.07;;;8.63;;
65202;SDS011;51788;45.124;38.966;2022-08-01T07:29:13;12.25;;;7.40;;
65202;SDS011;51788;45.124;38.966;2022-08-01T07:31:39;16.73;;;7.72;;
65202;SDS011;51788;45.124;38.966;2022-08-01T07:34:05;12.43;;;7.57;;
65202;SDS011;51788;45.124;38.966;2022-08-01T07:36:31;46.15;;;9.65;;
65202;SDS011;51788;45.124;38.966;2022-08-01T07:38:57;11.10;;;6.85;;
65202;SDS011;51788;45.124;38.966;2022-08-01T07:41:23;11.25;;;7.15;;
65202;SDS011;51788;45.124;38.966;2022-08-01T07:43:49;8.98;;;6.50;;
65202;SDS011;51788;45.124;38.966;2022-08-01T07:46:15;16.48;;;7.45;;
65202;SDS011;51788;45.124;38.966;2022-08-01T07:48:41;10.25;;;7.68;;
65202;SDS011;51788;45.124;38.966;2022-08-01T07:51:08;8.52;;;6.78;;
65202;SDS011;51788;45.124;38.966;2022-08-01T07:53:35;19.25;;;7.82;;
65202;SDS011;51788;45.124;38.966;2022-08-01T07:56:02;14.88;;;8.15;;
65202;SDS011;51788;45.124;38.966;2022-08-01T07:58:31;12.25;;;7.05;;
65202;SDS011;51788;45.124;38.966;2022-08-01T08:00:57;21.05;;;8.07;;
65202;SDS011;51788;45.124;38.966;2022-08-01T08:03:24;12.38;;;7.55;;
65202;SDS011;51788;45.124;38.966;2022-08-01T08:05:50;24.83;;;8.18;;
65202;SDS011;51788;45.124;38.966;2022-08-01T08:08:16;14.43;;;8.43;;
65202;SDS011;51788;45.124;38.966;2022-08-01T08:10:43;18.88;;;7.85;;
65202;SDS011;51788;45.124;38.966;2022-08-01T08:13:10;11.30;;;8.50;;
65202;SDS011;51788;45.124;38.966;2022-08-01T08:15:36;14.63;;;7.72;;
65202;SDS011;51788;45.124;38.966;2022-08-01T08:18:05;12.95;;;7.72;;
65202;SDS011;51788;45.124;38.966;2022-08-01T08:20:31;12.27;;;7.45;;
65202;SDS011;51788;45.124;38.966;2022-08-01T08:22:57;13.57;;;7.35;;
65202;SDS011;51788;45.124;38.966;2022-08-01T08:25:24;10.32;;;7.75;;
65202;SDS011;51788;45.124;38.966;2022-08-01T08:27:51;19.33;;;7.90;;
65202;SDS011;51788;45.124;38.966;2022-08-01T08:30:17;12.13;;;7.95;;
65202;SDS011;51788;45.124;38.966;2022-08-01T08:32:43;17.63;;;7.35;;
65202;SDS011;51788;45.124;38.966;2022-08-01T08:35:10;26.48;;;8.93;;
65202;SDS011;51788;45.124;38.966;2022-08-01T08:37:36;15.32;;;7.88;;
65202;SDS011;51788;45.124;38.966;2022-08-01T08:40:03;10.50;;;7.00;;
65202;SDS011;51788;45.124;38.966;2022-08-01T08:42:30;9.85;;;7.55;;
65202;SDS011;51788;45.124;38.966;2022-08-01T08:44:56;15.43;;;7.45;;
65202;SDS011;51788;45.124;38.966;2022-08-01T08:47:23;15.70;;;7.43;;
65202;SDS011;51788;45.124;38.966;2022-08-01T08:49:52;10.85;;;7.47;;
65202;SDS011;51788;45.124;38.966;2022-08-01T08:52:20;21.55;;;8.23;;
65202;SDS011;51788;45.124;38.966;2022-08-01T08:54:47;12.13;;;7.60;;
65202;SDS011;51788;45.124;38.966;2022-08-01T08:57:15;16.15;;;8.00;;
65202;SDS011;51788;45.124;38.966;2022-08-01T08:59:44;34.35;;;8.55;;
65202;SDS011;51788;45.124;38.966;2022-08-01T09:02:10;14.55;;;8.25;;
65202;SDS011;51788;45.124;38.966;2022-08-01T09:04:37;14.98;;;8.15;;
65202;SDS011;51788;45.124;38.966;2022-08-01T09:07:05;9.55;;;7.53;;
65202;SDS011;51788;45.124;38.966;2022-08-01T09:09:34;13.38;;;7.88;;
65202;SDS011;51788;45.124;38.966;2022-08-01T09:12:00;8.98;;;6.85;;
65202;SDS011;51788;45.124;38.966;2022-08-01T09:14:27;18.48;;;7.55;;
65202;SDS011;51788;45.124;38.966;2022-08-01T09:17:03;15.05;;;7.45;;
65202;SDS011;51788;45.124;38.966;2022-08-01T09:19:39;19.35;;;7.55;;
65202;SDS011;51788;45.124;38.966;2022-08-01T09:22:09;12.50;;;7.05;;
65202;SDS011;51788;45.124;38.966;2022-08-01T09:24:37;11.00;;;7.53;;
65202;SDS011;51788;45.124;38.966;2022-08-01T09:27:17;16.27;;;7.55;;
65202;SDS011;51788;45.124;38.966;2022-08-01T09:29:50;10.02;;;8.05;;
65202;SDS011;51788;45.124;38.966;2022-08-01T09:32:22;17.13;;;7.73;;
65202;SDS011;51788;45.124;38.966;2022-08-01T09:34:48;35.72;;;8.00;;
65202;SDS011;51788;45.124;38.966;2022-08-01T09:37:14;15.75;;;7.80;;
65202;SDS011;51788;45.124;38.966;2022-08-01T09:39:43;15.13;;;7.82;;
65202;SDS011;51788;45.124;38.966;2022-08-01T09:42:24;14.23;;;8.10;;
65202;SDS011;51788;45.124;38.966;2022-08-01T09:44:51;19.73;;;7.95;;
65202;SDS011;51788;45.124;38.966;2022-08-01T09:47:18;16.48;;;7.40;;
65202;SDS011;51788;45.124;38.966;2022-08-01T09:49:52;8.73;;;7.28;;
65202;SDS011;51788;45.124;38.966;2022-08-01T09:52:20;19.42;;;7.70;;
65202;SDS011;51788;45.124;38.966;2022-08-01T09:54:58;16.13;;;7.65;;
65202;SDS011;51788;45.124;38.966;2022-08-01T09:57:26;16.70;;;9.00;;
65202;SDS011;51788;45.124;38.966;2022-08-01T09:59:54;16.83;;;8.20;;
65202;SDS011;51788;45.124;38.966;2022-08-01T10:02:34;12.18;;;8.43;;
65202;SDS011;51788;45.124;38.966;2022-08-01T10:05:03;14.48;;;8.80;;
65202;SDS011;51788;45.124;38.966;2022-08-01T10:07:31;12.75;;;8.70;;
65202;SDS011;51788;45.124;38.966;2022-08-01T10:10:13;22.85;;;8.73;;
65202;SDS011;51788;45.124;38.966;2022-08-01T10:12:41;14.48;;;9.25;;
65202;SDS011;51788;45.124;38.966;2022-08-01T10:15:08;16.00;;;7.95;;
65202;SDS011;51788;45.124;38.966;2022-08-01T10:17:34;29.15;;;10.15;;
65202;SDS011;51788;45.124;38.966;2022-08-01T10:20:05;19.98;;;8.18;;
65202;SDS011;51788;45.124;38.966;2022-08-01T10:22:32;23.02;;;10.00;;
65202;SDS011;51788;45.124;38.966;2022-08-01T10:25:02;19.58;;;8.23;;
65202;SDS011;51788;45.124;38.966;2022-08-01T10:27:29;15.40;;;8.55;;
65202;SDS011;51788;45.124;38.966;2022-08-01T10:30:01;19.00;;;8.38;;
65202;SDS011;51788;45.124;38.966;2022-08-01T10:32:29;16.33;;;7.95;;
65202;SDS011;51788;45.124;38.966;2022-08-01T10:34:56;10.38;;;8.80;;
65202;SDS011;51788;45.124;38.966;2022-08-01T10:37:24;10.40;;;7.93;;
65202;SDS011;51788;45.124;38.966;2022-08-01T10:39:53;22.10;;;9.32;;
65202;SDS011;51788;45.124;38.966;2022-08-01T10:42:20;25.48;;;8.80;;
65202;SDS011;51788;45.124;38.966;2022-08-01T10:44:47;34.10;;;9.73;;
65202;SDS011;51788;45.124;38.966;2022-08-01T10:47:15;22.05;;;9.05;;
65202;SDS011;51788;45.124;38.966;2022-08-01T10:49:47;29.02;;;8.43;;
65202;SDS011;51788;45.124;38.966;2022-08-01T10:52:21;20.63;;;8.88;;
65202;SDS011;51788;45.124;38.966;2022-08-01T10:54:47;22.92;;;8.48;;
65202;SDS011;51788;45.124;38.966;2022-08-01T10:57:14;31.65;;;9.10;;
65202;SDS011;51788;45.124;38.966;2022-08-01T10:59:50;18.80;;;8.63;;
65202;SDS011;51788;45.124;38.966;2022-08-01T11:02:27;21.60;;;8.40;;
65202;SDS011;51788;45.124;38.966;2022-08-01T11:04:58;22.77;;;8.70;;
65202;SDS011;51788;45.124;38.966;2022-08-01T11:07:46;26.50;;;9.25;;
65202;SDS011;51788;45.124;38.966;2022-08-01T11:10:19;32.92;;;11.40;;
65202;SDS011;51788;45.124;38.966;2022-08-01T11:12:48;27.20;;;8.35;;
65202;SDS011;51788;45.124;38.966;2022-08-01T11:17:44;18.05;;;9.43;;
65202;SDS011;51788;45.124;38.966;2022-08-01T11:20:18;9.77;;;8.70;;
65202;SDS011;51788;45.124;38.966;2022-08-01T11:25:23;21.88;;;9.18;;
65202;SDS011;51788;45.124;38.966;2022-08-01T11:27:49;17.55;;;7.75;;
65202;SDS011;51788;45.124;38.966;2022-08-01T11:30:43;17.98;;;8.88;;
65202;SDS011;51788;45.124;38.966;2022-08-01T11:33:11;15.98;;;8.52;;
65202;SDS011;51788;45.124;38.966;2022-08-01T11:38:37;27.60;;;9.18;;
65202;SDS011;51788;45.124;38.966;2022-08-01T11:41:24;21.00;;;8.65;;
65202;SDS011;51788;45.124;38.966;2022-08-01T11:52:01;21.55;;;8.90;;
65202;SDS011;51788;45.124;38.966;2022-08-01T11:54:32;16.30;;;9.15;;
65202;SDS011;51788;45.124;38.966;2022-08-01T11:57:04;16.42;;;8.82;;
65202;SDS011;51788;45.124;38.966;2022-08-01T12:00:09;20.95;;;9.32;;
65202;SDS011;51788;45.124;38.966;2022-08-01T12:02:25;30.33;;;8.90;;
65202;SDS011;51788;45.124;38.966;2022-08-01T12:07:29;31.50;;;10.05;;
65202;SDS011;51788;45.124;38.966;2022-08-01T12:10:01;39.60;;;10.02;;
65202;SDS011;51788;45.124;38.966;2022-08-01T12:12:30;31.20;;;9.50;;
65202;SDS011;51788;45.124;38.966;2022-08-01T12:14:58;24.17;;;8.27;;
65202;SDS011;51788;45.124;38.966;2022-08-01T12:17:33;15.02;;;9.07;;
65202;SDS011;51788;45.124;38.966;2022-08-01T12:20:04;16.15;;;8.93;;
65202;SDS011;51788;45.124;38.966;2022-08-01T12:22:31;45.20;;;10.50;;
65202;SDS011;51788;45.124;38.966;2022-08-01T12:25:16;16.05;;;9.00;;
65202;SDS011;51788;45.124;38.966;2022-08-01T12:27:43;34.45;;;10.38;;
65202;SDS011;51788;45.124;38.966;2022-08-01T12:30:12;40.58;;;24.17;;
65202;SDS011;51788;45.124;38.966;2022-08-01T12:32:40;34.05;;;17.27;;
65202;SDS011;51788;45.124;38.966;2022-08-01T12:35:10;55.78;;;18.05;;
65202;SDS011;51788;45.124;38.966;2022-08-01T12:37:37;36.55;;;16.77;;
65202;SDS011;51788;45.124;38.966;2022-08-01T12:40:40;43.10;;;15.27;;
65202;SDS011;51788;45.124;38.966;2022-08-01T12:43:03;48.17;;;13.73;;
65202;SDS011;51788;45.124;38.966;2022-08-01T12:45:32;34.63;;;13.55;;
65202;SDS011;51788;45.124;38.966;2022-08-01T12:48:00;60.83;;;12.15;;
65202;SDS011;51788;45.124;38.966;2022-08-01T12:50:27;60.60;;;13.90;;
65202;SDS011;51788;45.124;38.966;2022-08-01T12:52:56;51.55;;;12.57;;
65202;SDS011;51788;45.124;38.966;2022-08-01T12:55:26;54.55;;;12.93;;
65202;SDS011;51788;45.124;38.966;2022-08-01T13:00:49;39.42;;;13.05;;
65202;SDS011;51788;45.124;38.966;2022-08-01T13:03:17;42.15;;;12.38;;
65202;SDS011;51788;45.124;38.966;2022-08-01T13:05:45;27.98;;;12.45;;
65202;SDS011;51788;45.124;38.966;2022-08-01T13:08:24;35.55;;;13.40;;
65202;SDS011;51788;45.124;38.966;2022-08-01T13:13:37;32.88;;;11.50;;
65202;SDS011;51788;45.124;38.966;2022-08-01T13:16:08;44.47;;;13.70;;
65202;SDS011;51788;45.124;38.966;2022-08-01T13:18:36;47.50;;;12.63;;
65202;SDS011;51788;45.124;38.966;2022-08-01T13:29:14;47.13;;;11.63;;
65202;SDS011;51788;45.124;38.966;2022-08-01T13:31:41;21.50;;;9.70;;
65202;SDS011;51788;45.124;38.966;2022-08-01T13:34:08;37.15;;;9.40;;
65202;SDS011;51788;45.124;38.966;2022-08-01T13:36:35;20.98;;;9.30;;
65202;SDS011;51788;45.124;38.966;2022-08-01T13:39:02;28.55;;;10.07;;
65202;SDS011;51788;45.124;38.966;2022-08-01T13:41:47;27.45;;;10.18;;
65202;SDS011;51788;45.124;38.966;2022-08-01T13:44:13;27.27;;;9.52;;
65202;SDS011;51788;45.124;38.966;2022-08-01T13:46:40;24.50;;;9.57;;
65202;SDS011;51788;45.124;38.966;2022-08-01T13:49:08;33.70;;;10.00;;
65202;SDS011;51788;45.124;38.966;2022-08-01T13:51:35;23.85;;;8.82;;
65202;SDS011;51788;45.124;38.966;2022-08-01T13:54:02;19.77;;;8.07;;
65202;SDS011;51788;45.124;38.966;2022-08-01T13:56:29;45.40;;;10.68;;
65202;SDS011;51788;45.124;38.966;2022-08-01T13:58:55;21.92;;;9.98;;
65202;SDS011;51788;45.124;38.966;2022-08-01T14:01:22;19.75;;;10.50;;
65202;SDS011;51788;45.124;38.966;2022-08-01T14:03:49;26.75;;;8.80;;
65202;SDS011;51788;45.124;38.966;2022-08-01T14:06:16;30.92;;;10.60;;
65202;SDS011;51788;45.124;38.966;2022-08-01T14:08:44;24.00;;;10.07;;
65202;SDS011;51788;45.124;38.966;2022-08-01T14:11:10;28.73;;;10.55;;
65202;SDS011;51788;45.124;38.966;2022-08-01T14:13:36;31.60;;;9.63;;
65202;SDS011;51788;45.124;38.966;2022-08-01T14:16:04;15.25;;;8.77;;
65202;SDS011;51788;45.124;38.966;2022-08-01T14:18:30;27.33;;;9.15;;
65202;SDS011;51788;45.124;38.966;2022-08-01T14:20:57;32.67;;;10.27;;
65202;SDS011;51788;45.124;38.966;2022-08-01T14:23:23;16.42;;;9.93;;
65202;SDS011;51788;45.124;38.966;2022-08-01T14:25:49;16.92;;;9.77;;
65202;SDS011;51788;45.124;38.966;2022-08-01T14:28:15;15.95;;;7.82;;
65202;SDS011;51788;45.124;38.966;2022-08-01T14:30:41;21.60;;;9.27;;
65202;SDS011;51788;45.124;38.966;2022-08-01T14:33:08;13.88;;;8.50;;
65202;SDS011;51788;45.124;38.966;2022-08-01T14:35:35;16.80;;;9.10;;
65202;SDS011;51788;45.124;38.966;2022-08-01T14:38:01;24.55;;;10.45;;
65202;SDS011;51788;45.124;38.966;2022-08-01T14:40:28;22.40;;;10.18;;
65202;SDS011;51788;45.124;38.966;2022-08-01T14:42:54;21.77;;;11.95;;
65202;SDS011;51788;45.124;38.966;2022-08-01T14:45:20;25.05;;;12.10;;
65202;SDS011;51788;45.124;38.966;2022-08-01T14:47:46;24.30;;;10.60;;
65202;SDS011;51788;45.124;38.966;2022-08-01T14:50:12;26.55;;;11.45;;
65202;SDS011;51788;45.124;38.966;2022-08-01T14:52:41;24.30;;;12.63;;
65202;SDS011;51788;45.124;38.966;2022-08-01T14:55:09;25.67;;;12.00;;
65202;SDS011;51788;45.124;38.966;2022-08-01T14:57:37;26.65;;;13.02;;
65202;SDS011;51788;45.124;38.966;2022-08-01T15:00:04;16.35;;;11.65;;
65202;SDS011;51788;45.124;38.966;2022-08-01T15:02:32;23.65;;;12.63;;
65202;SDS011;51788;45.124;38.966;2022-08-01T15:04:58;23.70;;;11.10;;
65202;SDS011;51788;45.124;38.966;2022-08-01T15:07:24;23.90;;;12.38;;
65202;SDS011;51788;45.124;38.966;2022-08-01T15:09:50;20.33;;;13.30;;
65202;SDS011;51788;45.124;38.966;2022-08-01T15:12:16;20.30;;;14.02;;
65202;SDS011;51788;45.124;38.966;2022-08-01T15:14:42;17.80;;;13.18;;
65202;SDS011;51788;45.124;38.966;2022-08-01T15:17:24;22.92;;;12.50;;
65202;SDS011;51788;45.124;38.966;2022-08-01T15:19:54;21.58;;;13.35;;